sensor_id;sensor_type;location;lat;lon;timestamp;P1;durP1;ratioP1;P2;durP2;ratioP2
76962;SDS011;65902;51.452;7.198;2023-07-08T00:00:19;5.30;;;2.88;;
76962;SDS011;65902;51.452;7.198;2023-07-08T00:01:20;6.82;;;3.03;;
76962;SDS011;65902;51.452;7.198;2023-07-08T00:02:20;4.38;;;2.83;;
76962;SDS011;65902;51.452;7.198;2023-07-08T00:03:21;5.55;;;3.15;;
76962;SDS011;65902;51.452;7.198;2023-07-08T00:04:21;5.45;;;2.97;;
76962;SDS011;65902;51.452;7.198;2023-07-08T00:05:22;5.47;;;3.30;;
76962;SDS011;65902;51.452;7.198;2023-07-08T00:06:26;4.75;;;3.30;;
76962;SDS011;65902;51.452;7.198;2023-07-08T00:07:28;5.28;;;3.20;;
76962;SDS011;65902;51.452;7.198;2023-07-08T00:08:29;5.38;;;3.50;;
76962;SDS011;65902;51.452;7.198;2023-07-08T00:09:29;5.22;;;3.58;;
76962;SDS011;65902;51.452;7.198;2023-07-08T00:10:30;5.68;;;3.10;;
76962;SDS011;65902;51.452;7.198;2023-07-08T00:11:30;7.97;;;2.97;;
76962;SDS011;65902;51.452;7.198;2023-07-08T00:12:31;5.63;;;3.08;;
76962;SDS011;65902;51.452;7.198;2023-07-08T00:13:33;4.65;;;2.88;;
76962;SDS011;65902;51.452;7.198;2023-07-08T00:14:34;4.32;;;2.92;;
76962;SDS011;65902;51.452;7.198;2023-07-08T00:15:34;5.97;;;3.47;;
76962;SDS011;65902;51.452;7.198;2023-07-08T00:16:35;7.82;;;3.45;;
76962;SDS011;65902;51.452;7.198;2023-07-08T00:17:36;4.00;;;3.17;;
76962;SDS011;65902;51.452;7.198;2023-07-08T00:18:37;4.15;;;3.20;;
76962;SDS011;65902;51.452;7.198;2023-07-08T00:19:38;4.20;;;3.80;;
76962;SDS011;65902;51.452;7.198;2023-07-08T00:20:39;6.53;;;3.00;;
76962;SDS011;65902;51.452;7.198;2023-07-08T00:21:40;4.65;;;3.08;;
76962;SDS011;65902;51.452;7.198;2023-07-08T00:22:41;5.65;;;3.22;;
76962;SDS011;65902;51.452;7.198;2023-07-08T00:23:48;3.78;;;2.95;;
76962;SDS011;65902;51.452;7.198;2023-07-08T00:24:48;6.80;;;3.10;;
76962;SDS011;65902;51.452;7.198;2023-07-08T00:25:50;4.93;;;3.08;;
76962;SDS011;65902;51.452;7.198;2023-07-08T00:26:52;7.72;;;3.72;;
76962;SDS011;65902;51.452;7.198;2023-07-08T00:27:52;4.70;;;3.13;;
76962;SDS011;65902;51.452;7.198;2023-07-08T00:28:53;4.45;;;3.10;;
76962;SDS011;65902;51.452;7.198;2023-07-08T00:29:54;5.47;;;3.60;;
76962;SDS011;65902;51.452;7.198;2023-07-08T00:30:54;4.82;;;2.85;;
76962;SDS011;65902;51.452;7.198;2023-07-08T00:31:56;4.72;;;3.30;;
76962;SDS011;65902;51.452;7.198;2023-07-08T00:32:56;4.43;;;2.90;;
76962;SDS011;65902;51.452;7.198;2023-07-08T00:33:58;4.75;;;3.30;;
76962;SDS011;65902;51.452;7.198;2023-07-08T00:34:59;5.00;;;3.30;;
76962;SDS011;65902;51.452;7.198;2023-07-08T00:36:00;5.80;;;3.05;;
76962;SDS011;65902;51.452;7.198;2023-07-08T00:37:01;4.28;;;3.17;;
76962;SDS011;65902;51.452;7.198;2023-07-08T00:39:13;5.85;;;3.05;;
76962;SDS011;65902;51.452;7.198;2023-07-08T00:40:18;5.45;;;3.45;;
76962;SDS011;65902;51.452;7.198;2023-07-08T00:41:24;4.78;;;3.15;;
76962;SDS011;65902;51.452;7.198;2023-07-08T00:42:26;5.93;;;3.22;;
76962;SDS011;65902;51.452;7.198;2023-07-08T00:43:34;4.47;;;3.17;;
76962;SDS011;65902;51.452;7.198;2023-07-08T00:44:35;7.10;;;3.28;;
76962;SDS011;65902;51.452;7.198;2023-07-08T00:45:43;6.38;;;3.28;;
76962;SDS011;65902;51.452;7.198;2023-07-08T00:47:49;4.57;;;3.22;;
76962;SDS011;65902;51.452;7.198;2023-07-08T00:48:50;5.78;;;3.55;;
76962;SDS011;65902;51.452;7.198;2023-07-08T00:49:58;4.65;;;3.53;;
76962;SDS011;65902;51.452;7.198;2023-07-08T00:51:00;6.60;;;3.40;;
76962;SDS011;65902;51.452;7.198;2023-07-08T00:52:23;5.70;;;3.38;;
76962;SDS011;65902;51.452;7.198;2023-07-08T00:54:27;4.07;;;2.90;;
76962;SDS011;65902;51.452;7.198;2023-07-08T00:55:28;4.47;;;2.83;;
76962;SDS011;65902;51.452;7.198;2023-07-08T00:56:29;6.60;;;3.85;;
76962;SDS011;65902;51.452;7.198;2023-07-08T00:57:31;7.85;;;3.65;;
76962;SDS011;65902;51.452;7.198;2023-07-08T00:58:35;5.50;;;3.15;;
76962;SDS011;65902;51.452;7.198;2023-07-08T00:59:42;6.22;;;3.10;;
76962;SDS011;65902;51.452;7.198;2023-07-08T01:00:45;4.47;;;3.13;;
76962;SDS011;65902;51.452;7.198;2023-07-08T01:01:46;7.30;;;3.60;;
76962;SDS011;65902;51.452;7.198;2023-07-08T01:02:53;7.50;;;4.65;;
76962;SDS011;65902;51.452;7.198;2023-07-08T01:03:56;4.32;;;3.35;;
76962;SDS011;65902;51.452;7.198;2023-07-08T01:05:58;7.20;;;3.97;;
76962;SDS011;65902;51.452;7.198;2023-07-08T01:07:02;4.20;;;3.13;;
76962;SDS011;65902;51.452;7.198;2023-07-08T01:08:03;6.70;;;3.42;;
76962;SDS011;65902;51.452;7.198;2023-07-08T01:09:06;5.35;;;3.50;;
76962;SDS011;65902;51.452;7.198;2023-07-08T01:10:09;5.60;;;2.90;;
76962;SDS011;65902;51.452;7.198;2023-07-08T01:11:13;4.78;;;3.13;;
76962;SDS011;65902;51.452;7.198;2023-07-08T01:12:18;8.38;;;3.67;;
76962;SDS011;65902;51.452;7.198;2023-07-08T01:13:19;4.78;;;3.10;;
76962;SDS011;65902;51.452;7.198;2023-07-08T01:14:21;5.50;;;3.53;;
76962;SDS011;65902;51.452;7.198;2023-07-08T01:15:23;7.10;;;4.13;;
76962;SDS011;65902;51.452;7.198;2023-07-08T01:16:25;5.15;;;3.60;;
76962;SDS011;65902;51.452;7.198;2023-07-08T01:17:27;4.95;;;3.40;;
76962;SDS011;65902;51.452;7.198;2023-07-08T01:18:32;4.65;;;3.88;;
76962;SDS011;65902;51.452;7.198;2023-07-08T01:19:34;4.07;;;2.92;;
76962;SDS011;65902;51.452;7.198;2023-07-08T01:20:34;4.72;;;3.33;;
76962;SDS011;65902;51.452;7.198;2023-07-08T01:21:39;5.95;;;3.33;;
76962;SDS011;65902;51.452;7.198;2023-07-08T01:22:40;5.10;;;3.72;;
76962;SDS011;65902;51.452;7.198;2023-07-08T01:23:42;4.57;;;3.03;;
76962;SDS011;65902;51.452;7.198;2023-07-08T01:24:43;7.93;;;3.50;;
76962;SDS011;65902;51.452;7.198;2023-07-08T01:25:44;5.13;;;3.80;;
76962;SDS011;65902;51.452;7.198;2023-07-08T01:26:45;4.55;;;3.33;;
76962;SDS011;65902;51.452;7.198;2023-07-08T01:27:47;5.22;;;3.15;;
76962;SDS011;65902;51.452;7.198;2023-07-08T01:28:49;4.10;;;3.10;;
76962;SDS011;65902;51.452;7.198;2023-07-08T01:29:50;5.13;;;3.40;;
76962;SDS011;65902;51.452;7.198;2023-07-08T01:30:51;7.78;;;3.40;;
76962;SDS011;65902;51.452;7.198;2023-07-08T01:31:54;6.03;;;3.67;;
76962;SDS011;65902;51.452;7.198;2023-07-08T01:32:55;5.43;;;2.88;;
76962;SDS011;65902;51.452;7.198;2023-07-08T01:33:56;6.38;;;3.63;;
76962;SDS011;65902;51.452;7.198;2023-07-08T01:34:59;5.13;;;3.15;;
76962;SDS011;65902;51.452;7.198;2023-07-08T01:36:01;7.95;;;4.03;;
76962;SDS011;65902;51.452;7.198;2023-07-08T01:37:01;5.70;;;2.95;;
76962;SDS011;65902;51.452;7.198;2023-07-08T01:38:03;6.63;;;4.07;;
76962;SDS011;65902;51.452;7.198;2023-07-08T01:40:19;5.68;;;3.42;;
76962;SDS011;65902;51.452;7.198;2023-07-08T01:41:23;6.47;;;3.03;;
76962;SDS011;65902;51.452;7.198;2023-07-08T01:42:24;4.55;;;3.25;;
76962;SDS011;65902;51.452;7.198;2023-07-08T01:43:25;5.85;;;3.28;;
76962;SDS011;65902;51.452;7.198;2023-07-08T01:45:33;5.35;;;3.20;;
76962;SDS011;65902;51.452;7.198;2023-07-08T01:46:34;4.90;;;3.65;;
76962;SDS011;65902;51.452;7.198;2023-07-08T01:47:35;6.80;;;3.55;;
76962;SDS011;65902;51.452;7.198;2023-07-08T01:48:36;4.65;;;3.22;;
76962;SDS011;65902;51.452;7.198;2023-07-08T01:49:37;5.68;;;3.30;;
76962;SDS011;65902;51.452;7.198;2023-07-08T01:50:44;5.50;;;3.60;;
76962;SDS011;65902;51.452;7.198;2023-07-08T01:51:47;4.47;;;3.50;;
76962;SDS011;65902;51.452;7.198;2023-07-08T01:52:48;7.82;;;3.78;;
76962;SDS011;65902;51.452;7.198;2023-07-08T01:53:49;5.38;;;2.97;;
76962;SDS011;65902;51.452;7.198;2023-07-08T01:54:55;4.45;;;3.45;;
76962;SDS011;65902;51.452;7.198;2023-07-08T01:55:56;6.20;;;3.33;;
76962;SDS011;65902;51.452;7.198;2023-07-08T01:56:57;3.97;;;3.10;;
76962;SDS011;65902;51.452;7.198;2023-07-08T01:57:57;6.05;;;3.33;;
76962;SDS011;65902;51.452;7.198;2023-07-08T01:58:57;7.65;;;3.75;;
76962;SDS011;65902;51.452;7.198;2023-07-08T01:59:58;5.05;;;3.33;;
76962;SDS011;65902;51.452;7.198;2023-07-08T02:00:59;5.93;;;3.55;;
76962;SDS011;65902;51.452;7.198;2023-07-08T02:02:01;5.47;;;3.75;;
76962;SDS011;65902;51.452;7.198;2023-07-08T02:03:01;4.68;;;3.83;;
76962;SDS011;65902;51.452;7.198;2023-07-08T02:04:01;6.63;;;3.40;;
76962;SDS011;65902;51.452;7.198;2023-07-08T02:05:02;4.10;;;3.10;;
76962;SDS011;65902;51.452;7.198;2023-07-08T02:06:03;4.60;;;3.35;;
76962;SDS011;65902;51.452;7.198;2023-07-08T02:07:05;6.82;;;3.60;;
76962;SDS011;65902;51.452;7.198;2023-07-08T02:08:06;5.03;;;3.50;;
76962;SDS011;65902;51.452;7.198;2023-07-08T02:09:06;7.43;;;3.40;;
76962;SDS011;65902;51.452;7.198;2023-07-08T02:10:07;5.78;;;3.67;;
76962;SDS011;65902;51.452;7.198;2023-07-08T02:11:07;4.15;;;3.13;;
76962;SDS011;65902;51.452;7.198;2023-07-08T02:12:08;5.13;;;3.80;;
76962;SDS011;65902;51.452;7.198;2023-07-08T02:13:09;4.43;;;3.42;;
76962;SDS011;65902;51.452;7.198;2023-07-08T02:14:10;5.45;;;3.92;;
76962;SDS011;65902;51.452;7.198;2023-07-08T02:15:10;5.28;;;3.60;;
76962;SDS011;65902;51.452;7.198;2023-07-08T02:16:10;5.13;;;3.80;;
76962;SDS011;65902;51.452;7.198;2023-07-08T02:17:11;4.95;;;3.88;;
76962;SDS011;65902;51.452;7.198;2023-07-08T02:18:12;4.70;;;3.33;;
76962;SDS011;65902;51.452;7.198;2023-07-08T02:19:13;7.00;;;4.20;;
76962;SDS011;65902;51.452;7.198;2023-07-08T02:20:14;5.78;;;3.90;;
76962;SDS011;65902;51.452;7.198;2023-07-08T02:21:15;7.45;;;3.30;;
76962;SDS011;65902;51.452;7.198;2023-07-08T02:22:18;4.38;;;3.17;;
76962;SDS011;65902;51.452;7.198;2023-07-08T02:23:19;5.38;;;3.65;;
76962;SDS011;65902;51.452;7.198;2023-07-08T02:24:20;5.43;;;3.35;;
76962;SDS011;65902;51.452;7.198;2023-07-08T02:25:22;5.00;;;3.50;;
76962;SDS011;65902;51.452;7.198;2023-07-08T02:26:22;6.47;;;3.40;;
76962;SDS011;65902;51.452;7.198;2023-07-08T02:27:23;5.93;;;3.85;;
76962;SDS011;65902;51.452;7.198;2023-07-08T02:28:23;6.60;;;4.47;;
76962;SDS011;65902;51.452;7.198;2023-07-08T02:29:24;4.55;;;3.42;;
76962;SDS011;65902;51.452;7.198;2023-07-08T02:30:26;6.18;;;3.63;;
76962;SDS011;65902;51.452;7.198;2023-07-08T02:31:26;4.78;;;3.70;;
76962;SDS011;65902;51.452;7.198;2023-07-08T02:32:27;5.82;;;4.22;;
76962;SDS011;65902;51.452;7.198;2023-07-08T02:33:28;5.55;;;4.45;;
76962;SDS011;65902;51.452;7.198;2023-07-08T02:34:32;5.10;;;3.55;;
76962;SDS011;65902;51.452;7.198;2023-07-08T02:35:33;7.30;;;3.60;;
76962;SDS011;65902;51.452;7.198;2023-07-08T02:36:34;8.68;;;3.67;;
76962;SDS011;65902;51.452;7.198;2023-07-08T02:37:36;5.55;;;3.60;;
76962;SDS011;65902;51.452;7.198;2023-07-08T02:38:37;9.30;;;3.85;;
76962;SDS011;65902;51.452;7.198;2023-07-08T02:39:38;5.53;;;3.72;;
76962;SDS011;65902;51.452;7.198;2023-07-08T02:40:39;6.03;;;3.80;;
76962;SDS011;65902;51.452;7.198;2023-07-08T02:41:39;4.93;;;3.20;;
76962;SDS011;65902;51.452;7.198;2023-07-08T02:42:39;5.00;;;3.50;;
76962;SDS011;65902;51.452;7.198;2023-07-08T02:43:40;4.80;;;3.70;;
76962;SDS011;65902;51.452;7.198;2023-07-08T02:44:41;6.18;;;4.70;;
76962;SDS011;65902;51.452;7.198;2023-07-08T02:45:41;7.97;;;4.25;;
76962;SDS011;65902;51.452;7.198;2023-07-08T02:46:41;5.07;;;3.30;;
76962;SDS011;65902;51.452;7.198;2023-07-08T02:47:43;4.70;;;3.30;;
76962;SDS011;65902;51.452;7.198;2023-07-08T02:48:43;7.25;;;4.03;;
76962;SDS011;65902;51.452;7.198;2023-07-08T02:49:44;6.82;;;3.70;;
76962;SDS011;65902;51.452;7.198;2023-07-08T02:50:46;7.20;;;3.67;;
76962;SDS011;65902;51.452;7.198;2023-07-08T02:51:46;5.38;;;3.58;;
76962;SDS011;65902;51.452;7.198;2023-07-08T02:52:47;4.88;;;4.38;;
76962;SDS011;65902;51.452;7.198;2023-07-08T02:53:49;6.72;;;4.47;;
76962;SDS011;65902;51.452;7.198;2023-07-08T02:54:50;8.77;;;3.78;;
76962;SDS011;65902;51.452;7.198;2023-07-08T02:55:52;8.05;;;4.13;;
76962;SDS011;65902;51.452;7.198;2023-07-08T02:56:52;5.07;;;4.18;;
76962;SDS011;65902;51.452;7.198;2023-07-08T02:57:52;4.70;;;3.75;;
76962;SDS011;65902;51.452;7.198;2023-07-08T02:58:53;5.07;;;3.63;;
76962;SDS011;65902;51.452;7.198;2023-07-08T02:59:53;4.63;;;3.55;;
76962;SDS011;65902;51.452;7.198;2023-07-08T03:00:55;4.65;;;3.65;;
76962;SDS011;65902;51.452;7.198;2023-07-08T03:01:56;6.07;;;3.40;;
76962;SDS011;65902;51.452;7.198;2023-07-08T03:02:56;5.88;;;3.88;;
76962;SDS011;65902;51.452;7.198;2023-07-08T03:04:00;5.25;;;3.80;;
76962;SDS011;65902;51.452;7.198;2023-07-08T03:05:01;6.78;;;3.88;;
76962;SDS011;65902;51.452;7.198;2023-07-08T03:06:02;6.13;;;3.70;;
76962;SDS011;65902;51.452;7.198;2023-07-08T03:07:04;7.60;;;3.63;;
76962;SDS011;65902;51.452;7.198;2023-07-08T03:08:04;5.70;;;3.70;;
76962;SDS011;65902;51.452;7.198;2023-07-08T03:09:05;4.47;;;3.92;;
76962;SDS011;65902;51.452;7.198;2023-07-08T03:10:06;4.82;;;3.15;;
76962;SDS011;65902;51.452;7.198;2023-07-08T03:11:07;5.88;;;3.50;;
76962;SDS011;65902;51.452;7.198;2023-07-08T03:12:09;11.52;;;6.47;;
76962;SDS011;65902;51.452;7.198;2023-07-08T03:13:11;6.15;;;4.88;;
76962;SDS011;65902;51.452;7.198;2023-07-08T03:14:11;9.73;;;5.00;;
76962;SDS011;65902;51.452;7.198;2023-07-08T03:15:11;5.95;;;5.25;;
76962;SDS011;65902;51.452;7.198;2023-07-08T03:16:12;10.00;;;7.70;;
76962;SDS011;65902;51.452;7.198;2023-07-08T03:17:12;13.73;;;9.38;;
76962;SDS011;65902;51.452;7.198;2023-07-08T03:18:13;11.30;;;5.82;;
76962;SDS011;65902;51.452;7.198;2023-07-08T03:19:14;9.68;;;5.65;;
76962;SDS011;65902;51.452;7.198;2023-07-08T03:20:15;7.55;;;5.00;;
76962;SDS011;65902;51.452;7.198;2023-07-08T03:21:16;7.32;;;5.00;;
76962;SDS011;65902;51.452;7.198;2023-07-08T03:22:16;10.90;;;6.85;;
76962;SDS011;65902;51.452;7.198;2023-07-08T03:23:18;13.63;;;10.75;;
76962;SDS011;65902;51.452;7.198;2023-07-08T03:24:18;5.53;;;3.90;;
76962;SDS011;65902;51.452;7.198;2023-07-08T03:25:19;9.48;;;5.80;;
76962;SDS011;65902;51.452;7.198;2023-07-08T03:26:20;9.40;;;5.68;;
76962;SDS011;65902;51.452;7.198;2023-07-08T03:27:21;11.85;;;8.07;;
76962;SDS011;65902;51.452;7.198;2023-07-08T03:28:22;13.40;;;9.52;;
76962;SDS011;65902;51.452;7.198;2023-07-08T03:29:23;6.45;;;5.53;;
76962;SDS011;65902;51.452;7.198;2023-07-08T03:30:24;7.10;;;5.72;;
76962;SDS011;65902;51.452;7.198;2023-07-08T03:31:24;8.35;;;5.25;;
76962;SDS011;65902;51.452;7.198;2023-07-08T03:32:24;10.98;;;6.28;;
76962;SDS011;65902;51.452;7.198;2023-07-08T03:33:25;19.92;;;13.10;;
76962;SDS011;65902;51.452;7.198;2023-07-08T03:34:26;17.92;;;12.50;;
76962;SDS011;65902;51.452;7.198;2023-07-08T03:35:27;12.27;;;8.07;;
76962;SDS011;65902;51.452;7.198;2023-07-08T03:36:27;11.30;;;8.15;;
76962;SDS011;65902;51.452;7.198;2023-07-08T03:37:27;12.38;;;7.85;;
76962;SDS011;65902;51.452;7.198;2023-07-08T03:38:28;10.05;;;7.05;;
76962;SDS011;65902;51.452;7.198;2023-07-08T03:39:29;12.77;;;4.68;;
76962;SDS011;65902;51.452;7.198;2023-07-08T03:40:32;5.47;;;4.38;;
76962;SDS011;65902;51.452;7.198;2023-07-08T03:41:32;6.78;;;3.80;;
76962;SDS011;65902;51.452;7.198;2023-07-08T03:42:33;5.50;;;3.53;;
76962;SDS011;65902;51.452;7.198;2023-07-08T03:43:33;6.35;;;3.92;;
76962;SDS011;65902;51.452;7.198;2023-07-08T03:44:33;4.60;;;3.28;;
76962;SDS011;65902;51.452;7.198;2023-07-08T03:45:34;5.30;;;3.72;;
76962;SDS011;65902;51.452;7.198;2023-07-08T03:46:35;6.07;;;3.63;;
76962;SDS011;65902;51.452;7.198;2023-07-08T03:47:35;5.28;;;4.10;;
76962;SDS011;65902;51.452;7.198;2023-07-08T03:48:36;5.22;;;3.53;;
76962;SDS011;65902;51.452;7.198;2023-07-08T03:49:37;5.53;;;4.00;;
76962;SDS011;65902;51.452;7.198;2023-07-08T03:50:38;6.28;;;3.85;;
76962;SDS011;65902;51.452;7.198;2023-07-08T03:51:40;6.07;;;3.55;;
76962;SDS011;65902;51.452;7.198;2023-07-08T03:52:41;6.28;;;4.38;;
76962;SDS011;65902;51.452;7.198;2023-07-08T03:53:41;5.00;;;3.85;;
76962;SDS011;65902;51.452;7.198;2023-07-08T03:54:42;5.60;;;4.18;;
76962;SDS011;65902;51.452;7.198;2023-07-08T03:55:43;7.13;;;4.47;;
76962;SDS011;65902;51.452;7.198;2023-07-08T03:56:44;6.13;;;3.65;;
76962;SDS011;65902;51.452;7.198;2023-07-08T03:57:45;5.68;;;3.85;;
76962;SDS011;65902;51.452;7.198;2023-07-08T03:58:45;5.45;;;3.42;;
76962;SDS011;65902;51.452;7.198;2023-07-08T03:59:47;5.82;;;3.83;;
76962;SDS011;65902;51.452;7.198;2023-07-08T04:00:47;5.88;;;3.58;;
76962;SDS011;65902;51.452;7.198;2023-07-08T04:01:48;6.10;;;3.75;;
76962;SDS011;65902;51.452;7.198;2023-07-08T04:02:49;5.53;;;3.67;;
76962;SDS011;65902;51.452;7.198;2023-07-08T04:03:53;5.05;;;3.28;;
76962;SDS011;65902;51.452;7.198;2023-07-08T04:04:54;4.93;;;3.60;;
76962;SDS011;65902;51.452;7.198;2023-07-08T04:05:55;5.13;;;3.97;;
76962;SDS011;65902;51.452;7.198;2023-07-08T04:06:55;5.55;;;3.70;;
76962;SDS011;65902;51.452;7.198;2023-07-08T04:07:56;6.97;;;4.45;;
76962;SDS011;65902;51.452;7.198;2023-07-08T04:08:56;7.20;;;3.28;;
76962;SDS011;65902;51.452;7.198;2023-07-08T04:09:57;5.55;;;3.20;;
76962;SDS011;65902;51.452;7.198;2023-07-08T04:10:57;5.28;;;3.53;;
76962;SDS011;65902;51.452;7.198;2023-07-08T04:11:57;5.07;;;3.88;;
76962;SDS011;65902;51.452;7.198;2023-07-08T04:13:00;6.93;;;4.30;;
76962;SDS011;65902;51.452;7.198;2023-07-08T04:14:00;5.93;;;3.50;;
76962;SDS011;65902;51.452;7.198;2023-07-08T04:15:01;6.40;;;4.45;;
76962;SDS011;65902;51.452;7.198;2023-07-08T04:16:02;5.03;;;3.95;;
76962;SDS011;65902;51.452;7.198;2023-07-08T04:17:03;6.88;;;5.20;;
76962;SDS011;65902;51.452;7.198;2023-07-08T04:18:04;6.63;;;3.60;;
76962;SDS011;65902;51.452;7.198;2023-07-08T04:19:04;6.90;;;3.72;;
76962;SDS011;65902;51.452;7.198;2023-07-08T04:20:05;5.43;;;3.70;;
76962;SDS011;65902;51.452;7.198;2023-07-08T04:21:06;5.40;;;3.88;;
76962;SDS011;65902;51.452;7.198;2023-07-08T04:22:07;5.72;;;3.72;;
76962;SDS011;65902;51.452;7.198;2023-07-08T04:23:08;5.70;;;4.00;;
76962;SDS011;65902;51.452;7.198;2023-07-08T04:24:09;8.13;;;3.60;;
76962;SDS011;65902;51.452;7.198;2023-07-08T04:25:11;5.93;;;4.03;;
76962;SDS011;65902;51.452;7.198;2023-07-08T04:26:12;7.45;;;3.88;;
76962;SDS011;65902;51.452;7.198;2023-07-08T04:27:13;4.35;;;3.95;;
76962;SDS011;65902;51.452;7.198;2023-07-08T04:28:15;5.05;;;4.05;;
76962;SDS011;65902;51.452;7.198;2023-07-08T04:29:17;6.60;;;4.93;;
76962;SDS011;65902;51.452;7.198;2023-07-08T04:30:22;7.03;;;5.63;;
76962;SDS011;65902;51.452;7.198;2023-07-08T04:32:24;5.35;;;4.10;;
76962;SDS011;65902;51.452;7.198;2023-07-08T04:33:25;5.43;;;4.78;;
76962;SDS011;65902;51.452;7.198;2023-07-08T04:34:25;7.78;;;5.75;;
76962;SDS011;65902;51.452;7.198;2023-07-08T04:35:25;17.52;;;12.60;;
76962;SDS011;65902;51.452;7.198;2023-07-08T04:36:26;13.05;;;10.20;;
76962;SDS011;65902;51.452;7.198;2023-07-08T04:37:27;21.48;;;11.77;;
76962;SDS011;65902;51.452;7.198;2023-07-08T04:38:28;7.93;;;5.28;;
76962;SDS011;65902;51.452;7.198;2023-07-08T04:39:29;7.45;;;4.35;;
76962;SDS011;65902;51.452;7.198;2023-07-08T04:40:30;5.47;;;3.88;;
76962;SDS011;65902;51.452;7.198;2023-07-08T04:41:30;5.10;;;4.05;;
76962;SDS011;65902;51.452;7.198;2023-07-08T04:42:31;6.00;;;4.47;;
76962;SDS011;65902;51.452;7.198;2023-07-08T04:43:32;6.93;;;4.03;;
76962;SDS011;65902;51.452;7.198;2023-07-08T04:44:32;6.72;;;4.63;;
76962;SDS011;65902;51.452;7.198;2023-07-08T04:45:33;6.13;;;4.38;;
76962;SDS011;65902;51.452;7.198;2023-07-08T04:46:43;7.05;;;4.38;;
76962;SDS011;65902;51.452;7.198;2023-07-08T04:47:45;4.75;;;3.67;;
76962;SDS011;65902;51.452;7.198;2023-07-08T04:48:52;7.15;;;5.95;;
76962;SDS011;65902;51.452;7.198;2023-07-08T04:49:52;8.13;;;4.50;;
76962;SDS011;65902;51.452;7.198;2023-07-08T04:50:53;5.45;;;4.00;;
76962;SDS011;65902;51.452;7.198;2023-07-08T04:51:55;5.70;;;3.80;;
76962;SDS011;65902;51.452;7.198;2023-07-08T04:52:56;5.07;;;3.95;;
76962;SDS011;65902;51.452;7.198;2023-07-08T04:53:58;8.00;;;4.20;;
76962;SDS011;65902;51.452;7.198;2023-07-08T04:54:59;5.10;;;4.28;;
76962;SDS011;65902;51.452;7.198;2023-07-08T04:55:59;6.15;;;4.65;;
76962;SDS011;65902;51.452;7.198;2023-07-08T04:57:00;6.68;;;3.90;;
76962;SDS011;65902;51.452;7.198;2023-07-08T04:58:00;7.28;;;4.65;;
76962;SDS011;65902;51.452;7.198;2023-07-08T04:59:05;8.15;;;4.13;;
76962;SDS011;65902;51.452;7.198;2023-07-08T05:00:07;6.88;;;4.15;;
76962;SDS011;65902;51.452;7.198;2023-07-08T05:01:10;6.05;;;4.22;;
76962;SDS011;65902;51.452;7.198;2023-07-08T05:02:11;8.02;;;5.45;;
76962;SDS011;65902;51.452;7.198;2023-07-08T05:03:11;5.38;;;4.10;;
76962;SDS011;65902;51.452;7.198;2023-07-08T05:04:13;7.68;;;3.72;;
76962;SDS011;65902;51.452;7.198;2023-07-08T05:05:14;6.15;;;4.05;;
76962;SDS011;65902;51.452;7.198;2023-07-08T05:06:15;5.72;;;3.80;;
76962;SDS011;65902;51.452;7.198;2023-07-08T05:07:16;10.07;;;4.00;;
76962;SDS011;65902;51.452;7.198;2023-07-08T05:08:17;6.30;;;4.65;;
76962;SDS011;65902;51.452;7.198;2023-07-08T05:09:17;8.50;;;4.22;;
76962;SDS011;65902;51.452;7.198;2023-07-08T05:10:18;6.47;;;4.63;;
76962;SDS011;65902;51.452;7.198;2023-07-08T05:11:19;6.15;;;4.20;;
76962;SDS011;65902;51.452;7.198;2023-07-08T05:12:20;7.25;;;4.22;;
76962;SDS011;65902;51.452;7.198;2023-07-08T05:13:20;5.80;;;4.25;;
76962;SDS011;65902;51.452;7.198;2023-07-08T05:14:20;6.22;;;3.90;;
76962;SDS011;65902;51.452;7.198;2023-07-08T05:15:21;6.93;;;4.53;;
76962;SDS011;65902;51.452;7.198;2023-07-08T05:16:22;5.15;;;4.25;;
76962;SDS011;65902;51.452;7.198;2023-07-08T05:17:23;6.30;;;3.55;;
76962;SDS011;65902;51.452;7.198;2023-07-08T05:18:25;6.72;;;4.40;;
76962;SDS011;65902;51.452;7.198;2023-07-08T05:19:25;5.18;;;4.30;;
76962;SDS011;65902;51.452;7.198;2023-07-08T05:20:25;8.43;;;4.75;;
76962;SDS011;65902;51.452;7.198;2023-07-08T05:21:28;10.32;;;7.75;;
76962;SDS011;65902;51.452;7.198;2023-07-08T05:22:29;6.72;;;4.97;;
76962;SDS011;65902;51.452;7.198;2023-07-08T05:23:29;7.18;;;4.25;;
76962;SDS011;65902;51.452;7.198;2023-07-08T05:24:30;6.88;;;4.40;;
76962;SDS011;65902;51.452;7.198;2023-07-08T05:25:33;6.13;;;4.55;;
76962;SDS011;65902;51.452;7.198;2023-07-08T05:26:34;6.53;;;4.85;;
76962;SDS011;65902;51.452;7.198;2023-07-08T05:27:36;8.20;;;6.22;;
76962;SDS011;65902;51.452;7.198;2023-07-08T05:28:38;7.95;;;5.63;;
76962;SDS011;65902;51.452;7.198;2023-07-08T05:29:38;8.52;;;5.20;;
76962;SDS011;65902;51.452;7.198;2023-07-08T05:30:41;7.32;;;4.55;;
76962;SDS011;65902;51.452;7.198;2023-07-08T05:31:42;5.97;;;4.38;;
76962;SDS011;65902;51.452;7.198;2023-07-08T05:32:42;6.53;;;4.03;;
76962;SDS011;65902;51.452;7.198;2023-07-08T05:33:44;5.30;;;4.03;;
76962;SDS011;65902;51.452;7.198;2023-07-08T05:34:46;6.03;;;4.35;;
76962;SDS011;65902;51.452;7.198;2023-07-08T05:35:47;8.88;;;4.60;;
76962;SDS011;65902;51.452;7.198;2023-07-08T05:36:47;5.63;;;3.72;;
76962;SDS011;65902;51.452;7.198;2023-07-08T05:37:47;6.43;;;3.78;;
76962;SDS011;65902;51.452;7.198;2023-07-08T05:38:48;7.25;;;3.90;;
76962;SDS011;65902;51.452;7.198;2023-07-08T05:39:48;5.55;;;3.88;;
76962;SDS011;65902;51.452;7.198;2023-07-08T05:40:53;5.32;;;3.85;;
76962;SDS011;65902;51.452;7.198;2023-07-08T05:41:54;5.60;;;3.88;;
76962;SDS011;65902;51.452;7.198;2023-07-08T05:42:55;5.57;;;4.10;;
76962;SDS011;65902;51.452;7.198;2023-07-08T05:43:55;8.68;;;4.20;;
76962;SDS011;65902;51.452;7.198;2023-07-08T05:44:59;6.60;;;5.63;;
76962;SDS011;65902;51.452;7.198;2023-07-08T05:46:00;5.28;;;4.55;;
76962;SDS011;65902;51.452;7.198;2023-07-08T05:47:01;6.43;;;4.57;;
76962;SDS011;65902;51.452;7.198;2023-07-08T05:48:02;5.43;;;4.10;;
76962;SDS011;65902;51.452;7.198;2023-07-08T05:49:02;7.85;;;4.80;;
76962;SDS011;65902;51.452;7.198;2023-07-08T05:50:03;5.38;;;4.03;;
76962;SDS011;65902;51.452;7.198;2023-07-08T05:51:04;5.05;;;3.65;;
76962;SDS011;65902;51.452;7.198;2023-07-08T05:52:04;7.38;;;3.95;;
76962;SDS011;65902;51.452;7.198;2023-07-08T05:53:10;5.10;;;3.88;;
76962;SDS011;65902;51.452;7.198;2023-07-08T05:54:10;6.30;;;3.63;;
76962;SDS011;65902;51.452;7.198;2023-07-08T05:55:11;6.35;;;5.15;;
76962;SDS011;65902;51.452;7.198;2023-07-08T05:56:12;4.63;;;3.83;;
76962;SDS011;65902;51.452;7.198;2023-07-08T05:57:16;5.70;;;3.67;;
76962;SDS011;65902;51.452;7.198;2023-07-08T05:58:16;5.15;;;3.88;;
76962;SDS011;65902;51.452;7.198;2023-07-08T05:59:17;5.97;;;3.53;;
76962;SDS011;65902;51.452;7.198;2023-07-08T06:00:17;6.05;;;4.00;;
76962;SDS011;65902;51.452;7.198;2023-07-08T06:01:18;6.85;;;3.70;;
76962;SDS011;65902;51.452;7.198;2023-07-08T06:02:19;8.98;;;4.18;;
76962;SDS011;65902;51.452;7.198;2023-07-08T06:03:22;9.45;;;3.83;;
76962;SDS011;65902;51.452;7.198;2023-07-08T06:04:23;4.80;;;3.88;;
76962;SDS011;65902;51.452;7.198;2023-07-08T06:05:23;5.85;;;4.07;;
76962;SDS011;65902;51.452;7.198;2023-07-08T06:06:24;6.10;;;4.20;;
76962;SDS011;65902;51.452;7.198;2023-07-08T06:07:24;5.75;;;3.78;;
76962;SDS011;65902;51.452;7.198;2023-07-08T06:08:25;6.18;;;4.18;;
76962;SDS011;65902;51.452;7.198;2023-07-08T06:09:26;7.07;;;3.95;;
76962;SDS011;65902;51.452;7.198;2023-07-08T06:10:26;5.60;;;3.92;;
76962;SDS011;65902;51.452;7.198;2023-07-08T06:11:27;5.82;;;4.05;;
76962;SDS011;65902;51.452;7.198;2023-07-08T06:12:27;6.30;;;4.18;;
76962;SDS011;65902;51.452;7.198;2023-07-08T06:13:27;5.85;;;3.53;;
76962;SDS011;65902;51.452;7.198;2023-07-08T06:14:28;6.95;;;3.60;;
76962;SDS011;65902;51.452;7.198;2023-07-08T06:15:29;4.93;;;3.55;;
76962;SDS011;65902;51.452;7.198;2023-07-08T06:16:30;7.13;;;4.13;;